createdAt,value
2023-01-08T00:02:02.045Z,26.75
2023-01-08T00:04:32.596Z,26.57
2023-01-08T00:07:03.283Z,25.97
2023-01-08T00:09:34.412Z,27.80
2023-01-08T00:12:05.798Z,28.15
2023-01-08T00:14:37.483Z,27.48
2023-01-08T00:17:08.719Z,28.40
2023-01-08T00:19:41.224Z,27.32
2023-01-08T00:22:12.347Z,26.77
2023-01-08T00:24:42.896Z,27.32
2023-01-08T00:27:13.431Z,26.48
2023-01-08T00:29:43.959Z,28.07
2023-01-08T00:32:15.719Z,27.10
2023-01-08T00:34:46.880Z,27.75
2023-01-08T00:37:19.420Z,28.12
2023-01-08T00:39:49.982Z,27.98
2023-01-08T00:42:20.645Z,28.98
2023-01-08T00:44:51.204Z,31.45
2023-01-08T00:47:26.512Z,30.40
2023-01-08T00:49:57.038Z,29.55
2023-01-08T00:52:27.784Z,30.43
2023-01-08T00:54:58.314Z,27.27
2023-01-08T00:57:37.970Z,27.87
2023-01-08T01:00:11.614Z,28.32
2023-01-08T01:02:42.829Z,28.77
2023-01-08T01:05:17.803Z,28.62
2023-01-08T01:07:49.496Z,28.17
2023-01-08T01:10:20.446Z,30.20
2023-01-08T01:12:51.345Z,30.95
2023-01-08T01:15:22.444Z,30.90
2023-01-08T01:17:53.176Z,29.95
2023-01-08T01:20:24.024Z,31.50
2023-01-08T01:22:54.580Z,29.57
2023-01-08T01:25:25.087Z,27.42
2023-01-08T01:27:55.832Z,26.37
2023-01-08T01:30:27.515Z,28.35
2023-01-08T01:32:58.073Z,27.17
2023-01-08T01:35:28.624Z,27.73
2023-01-08T01:37:59.195Z,27.52
2023-01-08T01:40:31.122Z,26.85
2023-01-08T01:43:04.505Z,26.20
2023-01-08T01:45:35.152Z,26.75
2023-01-08T01:48:15.440Z,27.30
2023-01-08T01:50:48.992Z,27.73
2023-01-08T01:53:25.202Z,28.60
2023-01-08T01:55:56.928Z,30.05
2023-01-08T01:58:32.876Z,30.62
2023-01-08T02:01:09.144Z,32.48
2023-01-08T02:03:41.284Z,30.90
2023-01-08T02:06:23.580Z,30.08
2023-01-08T02:09:18.240Z,29.20
2023-01-08T02:11:56.045Z,28.20
2023-01-08T02:14:29.712Z,29.45
2023-01-08T02:17:03.377Z,28.80
2023-01-08T02:19:46.044Z,29.10
2023-01-08T02:22:34.706Z,27.93
2023-01-08T02:25:32.359Z,28.60
2023-01-08T02:28:05.637Z,28.92
2023-01-08T02:30:36.439Z,29.15
2023-01-08T02:33:07.258Z,28.23
2023-01-08T02:35:44.616Z,27.87
2023-01-08T02:38:17.942Z,27.48
2023-01-08T02:40:57.026Z,27.85
2023-01-08T02:43:39.252Z,28.32
2023-01-08T02:46:14.094Z,28.30
2023-01-08T02:48:47.991Z,28.45
2023-01-08T02:53:54.043Z,28.57
2023-01-08T02:56:27.551Z,30.05
2023-01-08T02:59:01.253Z,30.35
2023-01-08T03:01:32.601Z,30.48
2023-01-08T03:04:12.625Z,30.68
2023-01-08T03:06:45.455Z,30.97
2023-01-08T03:09:17.580Z,31.68
2023-01-08T03:11:51.036Z,33.65
2023-01-08T03:14:24.847Z,31.75
2023-01-08T03:17:19.433Z,31.30
2023-01-08T03:19:52.892Z,32.15
2023-01-08T03:22:25.471Z,30.15
2023-01-08T03:24:57.872Z,31.10
2023-01-08T03:27:31.317Z,32.15
2023-01-08T03:30:02.538Z,29.92
2023-01-08T03:32:35.105Z,29.65
2023-01-08T03:35:11.005Z,31.33
2023-01-08T03:37:44.600Z,31.35
2023-01-08T03:40:20.891Z,30.30
2023-01-08T03:42:51.527Z,30.35
2023-01-08T03:45:24.429Z,29.77
2023-01-08T03:47:56.756Z,30.90
2023-01-08T03:50:30.673Z,29.95
2023-01-08T03:53:01.925Z,30.97
2023-01-08T03:55:33.515Z,31.82
2023-01-08T03:58:04.180Z,32.08
2023-01-08T04:00:36.443Z,32.75
2023-01-08T04:03:07.209Z,31.93
2023-01-08T04:05:38.077Z,31.12
2023-01-08T04:08:08.619Z,31.87
2023-01-08T04:10:39.206Z,32.60
2023-01-08T04:13:10.088Z,32.25
2023-01-08T04:15:41.040Z,32.65
2023-01-08T04:18:11.616Z,32.55
2023-01-08T04:20:43.643Z,31.65
2023-01-08T04:23:14.315Z,33.10
2023-01-08T04:25:47.344Z,32.45
2023-01-08T04:28:18.540Z,32.10
2023-01-08T04:30:49.259Z,33.95
2023-01-08T04:33:19.829Z,32.63
2023-01-08T04:35:50.410Z,34.23
2023-01-08T04:38:21.618Z,32.33
2023-01-08T04:40:53.911Z,32.53
2023-01-08T04:43:24.468Z,33.55
2023-01-08T04:45:56.710Z,33.38
2023-01-08T04:48:29.758Z,33.48
2023-01-08T04:51:01.789Z,33.98
2023-01-08T04:53:34.557Z,34.10
2023-01-08T04:56:17.915Z,33.67
2023-01-08T04:58:48.455Z,33.70
2023-01-08T05:01:22.436Z,36.48
2023-01-08T05:03:58.146Z,34.65
2023-01-08T05:06:30.610Z,34.10
2023-01-08T05:09:01.673Z,34.78
2023-01-08T05:11:32.222Z,34.13
2023-01-08T05:14:03.178Z,34.48
2023-01-08T05:16:34.517Z,34.13
2023-01-08T05:19:05.102Z,34.73
2023-01-08T05:21:35.694Z,33.67
2023-01-08T05:24:06.424Z,32.83
2023-01-08T05:26:37.583Z,35.43
2023-01-08T05:29:12.729Z,38.60
2023-01-08T05:31:43.675Z,39.73
2023-01-08T05:34:14.248Z,37.70
2023-01-08T05:36:44.845Z,36.28
2023-01-08T05:39:17.338Z,34.83
2023-01-08T05:41:48.265Z,34.43
2023-01-08T05:44:19.686Z,34.67
2023-01-08T05:46:50.224Z,34.85
2023-01-08T05:49:22.537Z,35.05
2023-01-08T05:51:53.459Z,35.30
2023-01-08T05:54:24.078Z,35.43
2023-01-08T05:56:54.673Z,38.58
2023-01-08T05:59:25.214Z,40.12
2023-01-08T06:01:55.775Z,43.08
2023-01-08T06:04:26.461Z,46.20
2023-01-08T06:06:57.432Z,41.92
2023-01-08T06:09:28.023Z,40.33
2023-01-08T06:11:58.558Z,38.78
2023-01-08T06:14:29.094Z,41.58
2023-01-08T06:16:59.669Z,35.28
2023-01-08T06:19:33.394Z,34.27
2023-01-08T06:22:03.991Z,34.63
2023-01-08T06:24:34.570Z,34.05
2023-01-08T06:27:05.116Z,33.48
2023-01-08T06:29:35.654Z,33.33
2023-01-08T06:32:07.938Z,33.02
2023-01-08T06:34:38.835Z,31.48
2023-01-08T06:37:09.426Z,32.70
2023-01-08T06:39:39.994Z,32.35
2023-01-08T06:42:10.566Z,31.50
2023-01-08T06:44:41.477Z,31.55
2023-01-08T06:47:12.418Z,32.83
2023-01-08T06:49:43.370Z,32.23
2023-01-08T06:52:14.138Z,31.48
2023-01-08T06:54:44.711Z,33.28
2023-01-08T06:57:15.859Z,33.40
2023-01-08T06:59:48.413Z,34.03
2023-01-08T07:02:21.069Z,35.65
2023-01-08T07:04:52.516Z,35.28
2023-01-08T07:07:24.280Z,36.60
2023-01-08T07:09:56.555Z,34.92
2023-01-08T07:12:27.240Z,37.88
2023-01-08T07:14:58.015Z,36.42
2023-01-08T07:17:29.685Z,33.30
2023-01-08T07:20:00.354Z,31.55
2023-01-08T07:22:31.885Z,31.30
2023-01-08T07:25:02.765Z,31.82
2023-01-08T07:27:33.296Z,31.65
2023-01-08T07:30:03.973Z,30.32
2023-01-08T07:32:34.626Z,30.68
2023-01-08T07:35:05.598Z,30.82
2023-01-08T07:37:37.954Z,28.45
2023-01-08T07:40:09.800Z,28.35
2023-01-08T07:42:40.439Z,30.62
2023-01-08T07:45:11.303Z,30.77
2023-01-08T07:47:42.262Z,30.48
2023-01-08T07:50:13.197Z,31.87
2023-01-08T07:52:43.751Z,32.75
2023-01-08T07:55:14.304Z,30.40
2023-01-08T07:57:44.865Z,30.60
2023-01-08T08:00:15.967Z,31.23
2023-01-08T08:02:47.472Z,29.87
2023-01-08T08:05:20.875Z,31.75
2023-01-08T08:07:51.382Z,31.57
2023-01-08T08:10:21.980Z,30.10
2023-01-08T08:12:53.899Z,36.15
2023-01-08T08:15:25.362Z,34.78
2023-01-08T08:17:55.983Z,34.30
2023-01-08T08:20:26.811Z,33.55
2023-01-08T08:23:09.270Z,30.05
2023-01-08T08:25:39.816Z,30.15
2023-01-08T08:28:12.587Z,31.05
2023-01-08T08:30:43.704Z,31.52
2023-01-08T08:33:17.270Z,31.12
2023-01-08T08:35:52.240Z,30.75
2023-01-08T08:38:24.136Z,29.48
2023-01-08T08:40:56.769Z,31.65
2023-01-08T08:43:27.308Z,31.42
2023-01-08T08:45:58.450Z,31.23
2023-01-08T08:48:28.993Z,32.13
2023-01-08T08:50:59.565Z,30.43
2023-01-08T08:53:30.139Z,31.20
2023-01-08T08:56:01.000Z,32.45
2023-01-08T08:58:31.626Z,31.37
2023-01-08T09:01:06.290Z,32.48
2023-01-08T09:03:37.698Z,32.30
2023-01-08T09:06:10.026Z,31.33
2023-01-08T09:08:40.562Z,32.00
2023-01-08T09:11:14.338Z,30.82
2023-01-08T09:13:44.370Z,30.72
2023-01-08T09:16:15.112Z,30.17
2023-01-08T09:18:45.814Z,31.15
2023-01-08T09:21:16.656Z,31.30
2023-01-08T09:23:49.984Z,30.77
2023-01-08T09:26:20.561Z,30.88
2023-01-08T09:28:52.168Z,31.20
2023-01-08T09:31:23.883Z,29.42
2023-01-08T09:33:54.588Z,30.30
2023-01-08T09:36:25.170Z,31.25
2023-01-08T09:38:55.725Z,30.40
2023-01-08T09:41:29.198Z,30.77
2023-01-08T09:44:03.505Z,32.00
2023-01-08T09:46:34.822Z,30.90
2023-01-08T09:49:11.171Z,30.05
2023-01-08T09:51:41.888Z,31.93
2023-01-08T09:54:15.309Z,30.45
2023-01-08T09:56:46.716Z,31.48
2023-01-08T09:59:19.381Z,31.33
2023-01-08T10:01:50.128Z,31.02
2023-01-08T10:04:26.933Z,31.42
2023-01-08T10:07:00.431Z,29.50
2023-01-08T10:09:33.068Z,29.27
2023-01-08T10:12:06.216Z,30.45
2023-01-08T10:14:48.718Z,31.45
2023-01-08T10:17:30.860Z,30.52
2023-01-08T10:20:01.375Z,30.52
2023-01-08T10:22:34.481Z,30.82
2023-01-08T10:25:10.909Z,28.90
2023-01-08T10:27:55.856Z,28.55
2023-01-08T10:30:38.267Z,30.53
2023-01-08T10:33:14.492Z,29.18
2023-01-08T10:35:46.801Z,29.27
2023-01-08T10:38:34.995Z,28.27
2023-01-08T10:41:08.443Z,27.32
2023-01-08T10:43:58.193Z,28.23
2023-01-08T10:46:40.436Z,27.17
2023-01-08T10:49:16.513Z,28.15
2023-01-08T10:51:55.796Z,27.93
2023-01-08T10:54:30.624Z,28.98
2023-01-08T10:57:02.619Z,29.25
2023-01-08T10:59:33.323Z,28.35
2023-01-08T11:02:04.873Z,27.75
2023-01-08T11:04:37.845Z,26.70
2023-01-08T11:07:09.096Z,29.18
2023-01-08T11:09:45.665Z,29.07
2023-01-08T11:12:37.375Z,29.82
2023-01-08T11:15:11.245Z,31.50
2023-01-08T11:17:41.793Z,31.07
2023-01-08T11:20:27.299Z,30.45
2023-01-08T11:23:19.232Z,29.98
2023-01-08T11:26:09.139Z,31.23
2023-01-08T11:28:48.479Z,28.50
2023-01-08T11:31:24.708Z,29.32
2023-01-08T11:33:58.142Z,27.80
2023-01-08T11:36:37.655Z,27.93
2023-01-08T11:39:10.507Z,26.85
2023-01-08T11:41:43.963Z,30.02
2023-01-08T11:44:20.325Z,28.47
2023-01-08T11:47:00.907Z,27.90
2023-01-08T11:50:06.144Z,28.95
2023-01-08T11:52:51.397Z,27.22
2023-01-08T11:55:42.886Z,28.60
2023-01-08T11:58:23.382Z,27.52
2023-01-08T12:00:59.349Z,29.40
2023-01-08T12:03:47.959Z,30.30
2023-01-08T12:06:42.563Z,28.90
2023-01-08T12:09:42.634Z,28.90
2023-01-08T12:12:16.581Z,29.15
2023-01-08T12:14:52.756Z,28.95
2023-01-08T12:17:44.157Z,28.00
2023-01-08T12:20:41.282Z,29.00
2023-01-08T12:23:42.771Z,27.27
2023-01-08T12:29:13.058Z,27.25
2023-01-08T12:31:54.474Z,27.82
2023-01-08T12:34:34.962Z,30.92
2023-01-08T12:37:08.390Z,28.75
2023-01-08T12:39:41.866Z,30.15
2023-01-08T12:42:15.261Z,31.17
2023-01-08T12:44:47.849Z,27.90
2023-01-08T12:47:22.279Z,29.37
2023-01-08T12:49:55.719Z,29.50
2023-01-08T12:52:33.197Z,29.23
2023-01-08T12:55:28.959Z,30.25
2023-01-08T12:58:20.397Z,30.05
2023-01-08T13:00:59.603Z,29.75
2023-01-08T13:03:33.217Z,29.37
2023-01-08T13:06:09.766Z,30.08
2023-01-08T13:08:42.948Z,32.38
2023-01-08T13:11:16.061Z,31.97
2023-01-08T13:13:47.645Z,33.30
2023-01-08T13:16:24.622Z,32.42
2023-01-08T13:19:00.538Z,31.90
2023-01-08T13:21:45.741Z,31.57
2023-01-08T13:24:36.792Z,32.38
2023-01-08T13:27:22.243Z,31.35
2023-01-08T13:29:53.575Z,30.82
2023-01-08T13:32:30.088Z,31.00
2023-01-08T13:35:15.383Z,31.35
2023-01-08T13:37:52.099Z,29.57
2023-01-08T13:40:50.724Z,30.40
2023-01-08T13:43:41.922Z,30.15
2023-01-08T13:46:21.029Z,28.92
2023-01-08T13:49:08.780Z,30.72
2023-01-08T13:51:46.183Z,28.60
2023-01-08T13:54:22.474Z,30.20
2023-01-08T13:56:58.906Z,27.48
2023-01-08T13:59:44.302Z,27.60
2023-01-08T14:02:27.006Z,30.15
2023-01-08T14:04:58.425Z,30.72
2023-01-08T14:07:29.402Z,30.25
2023-01-08T14:10:08.422Z,30.05
2023-01-08T14:12:39.127Z,30.20
2023-01-08T14:15:12.260Z,29.63
2023-01-08T14:17:45.120Z,30.32
2023-01-08T14:20:18.539Z,29.52
2023-01-08T14:22:49.141Z,30.08
2023-01-08T14:25:21.597Z,31.93
2023-01-08T14:28:01.217Z,30.65
2023-01-08T14:30:31.774Z,32.65
2023-01-08T14:33:02.837Z,31.40
2023-01-08T14:35:36.238Z,31.82
2023-01-08T14:38:06.808Z,30.35
2023-01-08T14:40:40.633Z,30.50
2023-01-08T14:43:13.804Z,31.20
2023-01-08T14:45:50.053Z,30.17
2023-01-08T14:48:32.518Z,30.70
2023-01-08T14:51:11.529Z,30.45
2023-01-08T14:53:48.447Z,30.35
2023-01-08T14:56:22.319Z,29.92
2023-01-08T14:58:54.852Z,31.30
2023-01-08T15:01:28.428Z,30.35
2023-01-08T15:04:12.780Z,30.30
2023-01-08T15:06:43.388Z,29.87
2023-01-08T15:09:26.384Z,31.77
2023-01-08T15:11:59.523Z,33.38
2023-01-08T15:14:33.506Z,35.15
2023-01-08T15:17:17.105Z,32.70
2023-01-08T15:19:50.579Z,34.43
2023-01-08T15:22:23.665Z,32.80
2023-01-08T15:24:59.915Z,33.10
2023-01-08T15:27:31.676Z,32.80
2023-01-08T15:30:03.905Z,32.60
2023-01-08T15:32:37.574Z,31.68
2023-01-08T15:35:19.497Z,35.10
2023-01-08T15:37:50.024Z,30.75
2023-01-08T15:40:20.585Z,28.98
2023-01-08T15:43:08.967Z,31.45
2023-01-08T15:45:41.996Z,30.00
2023-01-08T15:48:12.877Z,30.40
2023-01-08T15:50:45.660Z,28.85
2023-01-08T15:53:24.489Z,29.50
2023-01-08T15:55:55.049Z,30.05
2023-01-08T15:58:26.719Z,31.77
2023-01-08T16:00:57.296Z,39.75
2023-01-08T16:03:29.529Z,32.17
2023-01-08T16:06:00.116Z,31.37
2023-01-08T16:08:30.673Z,32.13
2023-01-08T16:11:01.232Z,31.40
2023-01-08T16:13:31.786Z,32.63
2023-01-08T16:16:08.320Z,31.35
2023-01-08T16:18:40.627Z,30.23
2023-01-08T16:21:12.684Z,29.72
2023-01-08T16:23:43.367Z,28.98
2023-01-08T16:26:15.834Z,30.92
2023-01-08T16:28:47.464Z,27.85
2023-01-08T16:31:18.265Z,31.20
2023-01-08T16:33:48.811Z,30.97
2023-01-08T16:36:19.378Z,30.35
2023-01-08T16:38:50.308Z,31.57
2023-01-08T16:41:20.948Z,31.57
2023-01-08T16:43:51.478Z,30.52
2023-01-08T16:46:22.079Z,32.28
2023-01-08T16:48:52.656Z,32.78
2023-01-08T16:51:24.907Z,31.97
2023-01-08T16:53:56.527Z,33.60
2023-01-08T16:56:27.086Z,33.67
2023-01-08T16:58:58.361Z,34.23
2023-01-08T17:01:28.955Z,32.67
2023-01-08T17:04:00.707Z,33.23
2023-01-08T17:06:32.611Z,32.50
2023-01-08T17:09:03.163Z,31.00
2023-01-08T17:11:33.741Z,32.05
2023-01-08T17:14:04.323Z,33.58
2023-01-08T17:16:34.975Z,33.30
2023-01-08T17:19:05.724Z,33.75
2023-01-08T17:21:37.399Z,32.20
2023-01-08T17:24:08.622Z,31.25
2023-01-08T17:26:39.188Z,32.15
2023-01-08T17:29:09.755Z,32.42
2023-01-08T17:31:40.559Z,32.85
2023-01-08T17:34:15.620Z,33.45
2023-01-08T17:36:46.180Z,33.90
2023-01-08T17:39:16.732Z,31.33
2023-01-08T17:42:04.904Z,33.13
2023-01-08T17:44:35.452Z,32.50
2023-01-08T17:47:06.001Z,32.85
2023-01-08T17:49:36.583Z,31.75
2023-01-08T17:52:07.262Z,32.13
2023-01-08T17:54:37.844Z,38.78
2023-01-08T17:57:08.476Z,36.35
2023-01-08T17:59:40.201Z,38.13
2023-01-08T18:02:15.788Z,37.42
2023-01-08T18:04:46.117Z,37.48
2023-01-08T18:07:17.133Z,38.55
2023-01-08T18:09:49.464Z,37.63
2023-01-08T18:12:20.331Z,35.25
2023-01-08T18:14:51.263Z,33.95
2023-01-08T18:17:21.847Z,35.25
2023-01-08T18:19:52.372Z,33.78
2023-01-08T18:22:22.923Z,32.78
2023-01-08T18:24:53.471Z,33.30
2023-01-08T18:27:24.263Z,33.08
2023-01-08T18:29:55.940Z,34.73
2023-01-08T18:32:26.516Z,33.85
2023-01-08T18:34:57.161Z,35.08
2023-01-08T18:37:28.747Z,34.05
2023-01-08T18:39:59.302Z,32.75
2023-01-08T18:42:31.069Z,32.95
2023-01-08T18:45:03.140Z,33.42
2023-01-08T18:47:33.680Z,32.33
2023-01-08T18:50:04.968Z,31.80
2023-01-08T18:52:38.866Z,32.90
2023-01-08T18:55:09.935Z,34.65
2023-01-08T18:57:41.636Z,34.55
2023-01-08T19:00:13.266Z,33.80
2023-01-08T19:02:44.436Z,34.33
2023-01-08T19:05:15.157Z,33.20
2023-01-08T19:07:46.035Z,33.88
2023-01-08T19:10:17.682Z,33.30
2023-01-08T19:12:49.016Z,36.28
2023-01-08T19:15:19.678Z,35.30
2023-01-08T19:17:50.219Z,34.00
2023-01-08T19:20:20.942Z,32.30
2023-01-08T19:22:52.769Z,35.68
2023-01-08T19:25:23.723Z,39.38
2023-01-08T19:27:54.284Z,41.08
2023-01-08T19:30:24.818Z,37.30
2023-01-08T19:32:55.396Z,35.65
2023-01-08T19:35:25.944Z,35.13
2023-01-08T19:37:57.720Z,34.58
2023-01-08T19:40:28.276Z,35.15
2023-01-08T19:43:17.832Z,35.40
2023-01-08T19:45:48.489Z,33.38
2023-01-08T19:48:19.046Z,32.00
2023-01-08T19:50:50.124Z,33.88
2023-01-08T19:53:20.679Z,33.67
2023-01-08T19:55:51.212Z,32.67
2023-01-08T19:58:23.487Z,32.73
2023-01-08T20:00:54.073Z,32.63
2023-01-08T20:03:26.259Z,34.03
2023-01-08T20:05:56.837Z,33.28
2023-01-08T20:08:27.396Z,33.45
2023-01-08T20:10:57.966Z,39.13
2023-01-08T20:13:31.243Z,33.63
2023-01-08T20:16:01.896Z,33.67
2023-01-08T20:18:33.150Z,32.10
2023-01-08T20:21:16.527Z,33.60
2023-01-08T20:23:49.067Z,33.25
2023-01-08T20:26:21.100Z,32.98
2023-01-08T20:28:51.700Z,34.40
2023-01-08T20:31:26.350Z,34.30
2023-01-08T20:33:58.821Z,34.05
2023-01-08T20:36:32.641Z,34.10
2023-01-08T20:39:05.765Z,32.23
2023-01-08T20:41:37.541Z,30.92
2023-01-08T20:44:09.185Z,31.87
2023-01-08T20:46:40.335Z,31.90
2023-01-08T20:49:17.192Z,32.93
2023-01-08T20:51:57.864Z,36.00
2023-01-08T20:54:20.359Z,35.38
2023-01-08T20:56:51.947Z,36.35
2023-01-08T20:59:24.917Z,37.08
2023-01-08T21:02:00.642Z,37.20
2023-01-08T21:04:32.231Z,39.83
2023-01-08T21:07:08.363Z,42.62
2023-01-08T21:12:12.756Z,43.68
2023-01-08T21:14:45.377Z,39.60
2023-01-08T21:17:17.343Z,38.50
2023-01-08T21:19:53.340Z,36.40
2023-01-08T21:22:26.414Z,37.15
2023-01-08T21:24:58.309Z,37.50
2023-01-08T21:27:31.708Z,38.02
2023-01-08T21:30:14.811Z,35.98
2023-01-08T21:32:47.092Z,32.23
2023-01-08T21:35:20.739Z,32.60
2023-01-08T21:37:52.844Z,33.80
2023-01-08T21:40:26.479Z,33.10
2023-01-08T21:43:17.717Z,33.88
2023-01-08T21:45:58.082Z,33.25
2023-01-08T21:48:33.462Z,33.53
2023-01-08T21:51:05.587Z,33.92
2023-01-08T21:53:38.279Z,35.13
2023-01-08T21:56:11.168Z,32.80
2023-01-08T21:58:44.022Z,33.63
2023-01-08T22:01:16.901Z,33.70
2023-01-08T22:03:50.973Z,33.33
2023-01-08T22:06:27.880Z,33.15
2023-01-08T22:08:59.431Z,34.35
2023-01-08T22:11:31.308Z,33.95
2023-01-08T22:14:06.575Z,32.45
2023-01-08T22:16:40.872Z,34.15
2023-01-08T22:19:14.936Z,31.82
2023-01-08T22:21:48.746Z,32.20
2023-01-08T22:24:25.493Z,30.97
2023-01-08T22:26:57.233Z,30.72
2023-01-08T22:29:33.731Z,32.28
2023-01-08T22:32:06.846Z,32.08
2023-01-08T22:34:38.551Z,32.03
2023-01-08T22:37:12.033Z,32.15
2023-01-08T22:39:44.737Z,33.25
2023-01-08T22:42:20.310Z,32.08
2023-01-08T22:45:02.981Z,31.62
2023-01-08T22:47:37.999Z,32.53
2023-01-08T22:50:13.142Z,33.30
2023-01-08T22:52:45.573Z,34.55
2023-01-08T22:55:16.619Z,33.42
2023-01-08T22:57:48.939Z,31.87
2023-01-08T23:00:22.469Z,31.45
2023-01-08T23:02:55.426Z,31.85
2023-01-08T23:05:26.889Z,30.05
2023-01-08T23:08:01.765Z,30.43
2023-01-08T23:10:37.991Z,31.95
2023-01-08T23:13:11.198Z,31.05
2023-01-08T23:15:46.873Z,31.52
2023-01-08T23:18:18.829Z,30.20
2023-01-08T23:20:49.356Z,30.52
2023-01-08T23:23:20.122Z,31.42
2023-01-08T23:25:50.817Z,31.75
2023-01-08T23:28:24.694Z,32.08
2023-01-08T23:30:55.263Z,30.48
2023-01-08T23:33:25.943Z,31.82
2023-01-08T23:35:56.473Z,30.37
2023-01-08T23:38:27.569Z,30.15
2023-01-08T23:40:59.248Z,30.05
2023-01-08T23:43:31.125Z,29.12
2023-01-08T23:46:08.769Z,30.77
2023-01-08T23:48:39.589Z,30.43
2023-01-08T23:51:10.631Z,29.48
2023-01-08T23:53:42.311Z,29.70
2023-01-08T23:56:12.934Z,31.57
2023-01-08T23:58:45.163Z,32.88
